createdAt,value
2018-10-05T00:01:37.126Z,4.70
2018-10-05T00:04:06.250Z,4.47
2018-10-05T00:06:35.297Z,5.00
2018-10-05T00:09:05.138Z,4.80
2018-10-05T00:11:34.378Z,4.87
2018-10-05T00:14:03.688Z,4.50
2018-10-05T00:16:33.130Z,4.70
2018-10-05T00:19:02.505Z,4.63
2018-10-05T00:21:31.923Z,4.10
2018-10-05T00:24:01.451Z,3.93
2018-10-05T00:26:30.883Z,4.23
2018-10-05T00:29:00.041Z,3.80
2018-10-05T00:31:29.485Z,4.80
2018-10-05T00:33:58.947Z,4.03
2018-10-05T00:36:28.214Z,4.73
2018-10-05T00:38:57.524Z,4.97
2018-10-05T00:41:26.921Z,4.73
2018-10-05T00:43:56.288Z,4.53
2018-10-05T00:46:25.663Z,5.30
2018-10-05T00:48:55.428Z,4.37
2018-10-05T00:51:24.538Z,4.73
2018-10-05T00:53:53.857Z,5.03
2018-10-05T00:56:23.219Z,5.00
2018-10-05T00:58:52.824Z,4.67
2018-10-05T01:01:22.116Z,5.30
2018-10-05T01:03:51.691Z,5.33
2018-10-05T01:06:21.084Z,5.17
2018-10-05T01:08:50.342Z,5.37
2018-10-05T01:11:19.807Z,5.60
2018-10-05T01:13:49.231Z,5.37
2018-10-05T01:16:18.756Z,4.87
2018-10-05T01:18:48.295Z,5.20
2018-10-05T01:21:17.496Z,5.20
2018-10-05T01:23:46.982Z,5.70
2018-10-05T01:26:16.442Z,5.03
2018-10-05T01:28:45.568Z,6.13
2018-10-05T01:31:14.948Z,5.57
2018-10-05T01:33:44.311Z,5.57
2018-10-05T01:36:13.584Z,5.63
2018-10-05T01:38:42.930Z,5.47
2018-10-05T01:41:12.535Z,5.47
2018-10-05T01:43:41.976Z,5.30
2018-10-05T01:46:11.393Z,6.00
2018-10-05T01:48:40.859Z,5.27
2018-10-05T01:51:10.202Z,5.60
2018-10-05T01:53:39.500Z,5.90
2018-10-05T01:56:08.916Z,6.17
2018-10-05T01:58:38.243Z,6.17
2018-10-05T02:01:07.620Z,5.37
2018-10-05T02:03:37.218Z,5.70
2018-10-05T02:06:06.837Z,5.87
2018-10-05T02:08:36.338Z,6.10
2018-10-05T02:11:05.748Z,5.87
2018-10-05T02:13:35.085Z,6.40
2018-10-05T02:16:04.660Z,6.07
2018-10-05T02:18:34.096Z,5.83
2018-10-05T02:21:03.560Z,5.67
2018-10-05T02:23:33.132Z,5.90
2018-10-05T02:26:02.244Z,5.97
2018-10-05T02:28:31.428Z,5.70
2018-10-05T02:31:01.127Z,5.20
2018-10-05T02:33:30.832Z,5.60
2018-10-05T02:36:00.264Z,5.00
2018-10-05T02:38:29.609Z,5.73
2018-10-05T02:40:59.037Z,5.40
2018-10-05T02:43:28.321Z,5.23
2018-10-05T02:45:57.640Z,5.47
2018-10-05T02:48:26.908Z,6.00
2018-10-05T02:50:56.206Z,5.50
2018-10-05T02:53:25.537Z,5.73
2018-10-05T02:55:55.003Z,6.10
2018-10-05T02:58:24.390Z,5.70
2018-10-05T03:01:04.561Z,5.93
2018-10-05T03:03:34.521Z,6.47
2018-10-05T03:06:03.933Z,6.13
2018-10-05T03:08:33.571Z,5.43
2018-10-05T03:11:03.238Z,5.90
2018-10-05T03:13:33.142Z,7.70
2018-10-05T03:16:02.409Z,7.63
2018-10-05T03:18:32.537Z,7.57
2018-10-05T03:21:01.774Z,7.40
2018-10-05T03:23:30.868Z,7.80
2018-10-05T03:26:00.352Z,6.77
2018-10-05T03:28:29.435Z,7.80
2018-10-05T03:30:58.878Z,8.03
2018-10-05T03:33:28.151Z,8.40
2018-10-05T03:35:57.443Z,7.37
2018-10-05T03:38:26.828Z,9.00
2018-10-05T03:40:56.134Z,8.17
2018-10-05T03:43:25.630Z,9.10
2018-10-05T03:45:55.054Z,8.90
2018-10-05T03:48:24.603Z,7.20
2018-10-05T03:50:54.054Z,7.43
2018-10-05T03:53:23.093Z,7.00
2018-10-05T03:55:52.506Z,6.80
2018-10-05T03:58:21.878Z,8.03
2018-10-05T04:00:51.374Z,8.27
2018-10-05T04:03:21.025Z,9.63
2018-10-05T04:05:50.468Z,9.03
2018-10-05T04:08:19.756Z,8.17
2018-10-05T04:10:49.182Z,9.40
2018-10-05T04:13:18.897Z,9.40
2018-10-05T04:15:48.455Z,10.00
2018-10-05T04:18:17.926Z,10.57
2018-10-05T04:20:47.450Z,10.33
2018-10-05T04:23:16.548Z,10.87
2018-10-05T04:25:46.014Z,11.10
2018-10-05T04:28:15.115Z,11.33
2018-10-05T04:30:44.251Z,10.53
2018-10-05T04:33:13.608Z,11.03
2018-10-05T04:35:42.687Z,15.83
2018-10-05T04:38:12.103Z,10.67
2018-10-05T04:40:41.506Z,11.33
2018-10-05T04:43:10.695Z,11.03
2018-10-05T04:45:40.118Z,10.70
2018-10-05T04:48:09.617Z,8.90
2018-10-05T04:50:39.080Z,9.30
2018-10-05T04:53:08.590Z,10.13
2018-10-05T04:55:37.856Z,10.67
2018-10-05T04:58:06.900Z,12.17
2018-10-05T05:00:36.014Z,11.77
2018-10-05T05:03:05.934Z,12.90
2018-10-05T05:05:35.048Z,14.07
2018-10-05T05:08:04.150Z,13.77
2018-10-05T05:10:33.190Z,13.87
2018-10-05T05:13:02.313Z,17.60
2018-10-05T05:15:31.747Z,13.97
2018-10-05T05:18:01.405Z,13.07
2018-10-05T05:20:30.778Z,12.37
2018-10-05T05:23:00.230Z,14.67
2018-10-05T05:25:29.323Z,14.80
2018-10-05T05:27:58.380Z,13.00
2018-10-05T05:30:27.885Z,13.17
2018-10-05T05:32:57.306Z,12.37
2018-10-05T05:35:26.797Z,12.73
2018-10-05T05:37:56.074Z,8.97
2018-10-05T05:40:25.282Z,7.60
2018-10-05T05:42:54.266Z,7.10
2018-10-05T05:45:23.638Z,6.23
2018-10-05T05:47:52.818Z,6.80
2018-10-05T05:50:21.925Z,6.20
2018-10-05T05:52:51.073Z,8.20
2018-10-05T05:55:20.184Z,5.87
2018-10-05T05:57:49.255Z,5.80
2018-10-05T06:00:18.298Z,6.70
2018-10-05T06:02:47.500Z,7.20
2018-10-05T06:05:16.563Z,6.50
2018-10-05T06:07:45.744Z,6.73
2018-10-05T06:10:14.783Z,6.87
2018-10-05T06:12:43.830Z,7.00
2018-10-05T06:15:13.010Z,6.93
2018-10-05T06:17:42.149Z,8.27
2018-10-05T06:20:11.247Z,7.30
2018-10-05T06:22:40.552Z,6.90
2018-10-05T06:25:09.617Z,4.97
2018-10-05T06:27:38.854Z,5.83
2018-10-05T06:30:07.986Z,5.50
2018-10-05T06:32:37.022Z,5.30
2018-10-05T06:35:06.200Z,5.20
2018-10-05T06:37:35.610Z,6.03
2018-10-05T06:40:04.677Z,6.23
2018-10-05T06:42:33.845Z,4.43
2018-10-05T06:45:02.908Z,5.50
2018-10-05T06:47:31.991Z,5.00
2018-10-05T06:50:01.166Z,5.10
2018-10-05T06:52:30.203Z,4.50
2018-10-05T06:54:59.303Z,4.03
2018-10-05T06:57:28.408Z,4.90
2018-10-05T06:59:57.471Z,4.93
2018-10-05T07:02:26.554Z,4.43
2018-10-05T07:04:55.745Z,4.77
2018-10-05T07:07:25.810Z,4.70
2018-10-05T07:09:54.884Z,4.60
2018-10-05T07:12:24.076Z,4.43
2018-10-05T07:14:53.139Z,4.07
2018-10-05T07:17:22.180Z,4.50
2018-10-05T07:19:51.235Z,6.33
2018-10-05T07:22:20.337Z,4.80
2018-10-05T07:24:49.373Z,3.83
2018-10-05T07:27:18.550Z,4.00
2018-10-05T07:29:47.759Z,4.60
2018-10-05T07:32:16.915Z,4.57
2018-10-05T07:34:45.987Z,4.00
2018-10-05T07:37:15.046Z,4.30
2018-10-05T07:39:44.159Z,4.87
2018-10-05T07:42:13.247Z,4.10
2018-10-05T07:44:42.522Z,4.67
2018-10-05T07:47:11.959Z,5.40
2018-10-05T07:49:41.107Z,4.60
2018-10-05T07:52:10.142Z,4.77
2018-10-05T07:54:39.231Z,5.10
2018-10-05T07:57:08.578Z,5.13
2018-10-05T07:59:37.928Z,5.47
2018-10-05T08:02:07.519Z,5.57
2018-10-05T08:04:36.554Z,6.30
2018-10-05T08:07:05.712Z,5.70
2018-10-05T08:09:35.164Z,5.80
2018-10-05T08:12:04.171Z,6.20
2018-10-05T08:14:33.215Z,6.07
2018-10-05T08:17:03.140Z,6.60
2018-10-05T08:19:32.392Z,6.80
2018-10-05T08:22:01.495Z,6.50
2018-10-05T08:24:30.771Z,6.00
2018-10-05T08:26:59.914Z,6.37
2018-10-05T08:29:29.085Z,6.37
2018-10-05T08:31:58.299Z,6.43
2018-10-05T08:34:27.667Z,5.23
2018-10-05T08:36:56.784Z,4.70
2018-10-05T08:39:26.135Z,4.10
2018-10-05T08:41:55.239Z,4.07
2018-10-05T08:44:24.628Z,3.87
2018-10-05T08:46:53.686Z,3.60
2018-10-05T08:49:23.160Z,3.80
2018-10-05T08:51:52.674Z,4.20
2018-10-05T08:54:22.031Z,3.80
2018-10-05T08:56:51.305Z,3.87
2018-10-05T08:59:20.367Z,3.90
2018-10-05T09:01:49.494Z,3.63
2018-10-05T09:04:18.632Z,3.90
2018-10-05T09:06:48.125Z,3.90
2018-10-05T09:09:17.238Z,4.30
2018-10-05T09:11:46.271Z,4.00
2018-10-05T09:14:15.668Z,4.47
2018-10-05T09:16:44.739Z,3.43
2018-10-05T09:19:14.118Z,3.87
2018-10-05T09:21:43.221Z,3.60
2018-10-05T09:24:12.387Z,3.53
2018-10-05T09:26:41.381Z,3.60
2018-10-05T09:29:10.410Z,3.60
2018-10-05T09:31:39.451Z,3.87
2018-10-05T09:34:08.508Z,3.70
2018-10-05T09:36:37.514Z,4.13
2018-10-05T09:39:07.868Z,4.17
2018-10-05T09:41:37.136Z,3.80
2018-10-05T09:44:07.445Z,3.97
2018-10-05T09:46:36.547Z,3.73
2018-10-05T09:49:05.657Z,4.10
2018-10-05T09:51:35.120Z,3.97
2018-10-05T09:54:04.158Z,4.33
2018-10-05T09:56:33.173Z,3.77
2018-10-05T09:59:02.504Z,3.70
2018-10-05T10:01:36.964Z,3.80
2018-10-05T10:04:06.473Z,4.30
2018-10-05T10:06:35.974Z,4.07
2018-10-05T10:09:06.543Z,4.73
2018-10-05T10:11:36.172Z,4.87
2018-10-05T10:14:06.010Z,4.93
2018-10-05T10:16:35.463Z,4.70
2018-10-05T10:19:04.641Z,4.57
2018-10-05T10:21:33.700Z,4.03
2018-10-05T10:24:02.851Z,4.27
2018-10-05T10:26:32.124Z,4.37
2018-10-05T10:29:01.169Z,4.13
2018-10-05T10:31:30.233Z,3.23
2018-10-05T10:33:59.666Z,3.77
2018-10-05T10:36:28.735Z,3.20
2018-10-05T10:38:57.802Z,3.30
2018-10-05T10:41:27.019Z,3.20
2018-10-05T10:43:56.206Z,3.03
2018-10-05T10:46:25.262Z,2.93
2018-10-05T10:48:54.484Z,3.03
2018-10-05T10:51:23.562Z,2.97
2018-10-05T10:53:53.024Z,2.80
2018-10-05T10:56:22.410Z,2.97
2018-10-05T10:58:51.710Z,2.90
2018-10-05T11:01:21.024Z,2.40
2018-10-05T11:03:50.307Z,2.30
2018-10-05T11:06:19.568Z,3.07
2018-10-05T11:08:48.612Z,2.57
2018-10-05T11:11:17.847Z,3.13
2018-10-05T11:13:46.950Z,2.60
2018-10-05T11:16:16.270Z,3.03
2018-10-05T11:18:45.899Z,2.73
2018-10-05T11:21:15.076Z,2.73
2018-10-05T11:23:45.232Z,3.03
2018-10-05T11:26:14.484Z,2.60
2018-10-05T11:28:43.514Z,2.97
2018-10-05T11:31:12.603Z,2.80
2018-10-05T11:33:41.773Z,2.87
2018-10-05T11:36:10.820Z,2.60
2018-10-05T11:38:40.052Z,2.87
2018-10-05T11:41:09.144Z,2.60
2018-10-05T11:43:38.224Z,2.13
2018-10-05T11:46:07.588Z,2.37
2018-10-05T11:48:36.600Z,2.60
2018-10-05T11:51:05.706Z,2.43
2018-10-05T11:53:34.976Z,2.73
2018-10-05T11:56:04.047Z,2.07
2018-10-05T11:58:33.092Z,2.53
2018-10-05T12:01:02.240Z,2.00
2018-10-05T12:03:31.644Z,2.30
2018-10-05T12:06:00.723Z,2.17
2018-10-05T12:08:29.819Z,2.47
2018-10-05T12:10:58.955Z,2.40
2018-10-05T12:13:27.931Z,1.90
2018-10-05T12:15:57.293Z,2.23
2018-10-05T12:18:26.592Z,2.10
2018-10-05T12:20:55.692Z,2.10
2018-10-05T12:23:25.083Z,2.27
2018-10-05T12:25:54.484Z,2.03
2018-10-05T12:28:23.840Z,1.90
2018-10-05T12:30:53.476Z,1.80
2018-10-05T12:33:22.899Z,2.07
2018-10-05T12:35:52.047Z,1.70
2018-10-05T12:38:21.378Z,2.50
2018-10-05T12:40:50.472Z,2.20
2018-10-05T12:43:19.546Z,1.90
2018-10-05T12:45:48.622Z,2.20
2018-10-05T12:48:18.083Z,2.00
2018-10-05T12:50:47.778Z,2.70
2018-10-05T12:53:17.161Z,2.07
2018-10-05T12:55:46.272Z,2.33
2018-10-05T12:58:15.393Z,2.00
2018-10-05T13:00:44.481Z,2.40
2018-10-05T13:03:13.554Z,2.33
2018-10-05T13:05:42.962Z,2.00
2018-10-05T13:08:11.992Z,1.90
2018-10-05T13:10:41.005Z,2.10
2018-10-05T13:13:10.157Z,2.00
2018-10-05T13:15:39.257Z,2.00
2018-10-05T13:18:08.815Z,2.30
2018-10-05T13:20:37.923Z,1.90
2018-10-05T13:23:07.460Z,2.10
2018-10-05T13:25:36.515Z,2.37
2018-10-05T13:28:05.566Z,2.10
2018-10-05T13:30:34.611Z,2.30
2018-10-05T13:33:03.580Z,2.67
2018-10-05T13:35:32.615Z,2.10
2018-10-05T13:38:02.069Z,2.13
2018-10-05T13:40:31.399Z,2.10
2018-10-05T13:43:00.434Z,2.33
2018-10-05T13:45:29.516Z,2.17
2018-10-05T13:47:58.618Z,2.20
2018-10-05T13:50:27.600Z,2.40
2018-10-05T13:52:56.860Z,2.17
2018-10-05T13:55:26.238Z,2.00
2018-10-05T13:57:55.354Z,2.60
2018-10-05T14:00:24.419Z,1.87
2018-10-05T14:02:53.439Z,2.20
2018-10-05T14:05:22.578Z,2.20
2018-10-05T14:07:52.520Z,2.70
2018-10-05T14:10:21.598Z,2.27
2018-10-05T14:12:50.594Z,2.40
2018-10-05T14:15:19.652Z,6.23
2018-10-05T14:17:49.168Z,2.33
2018-10-05T14:20:18.859Z,2.60
2018-10-05T14:22:47.866Z,2.23
2018-10-05T14:25:17.196Z,2.47
2018-10-05T14:27:46.595Z,2.30
2018-10-05T14:30:15.571Z,2.00
2018-10-05T14:32:45.075Z,2.53
2018-10-05T14:35:14.139Z,3.10
2018-10-05T14:37:43.171Z,2.13
2018-10-05T14:40:13.479Z,2.60
2018-10-05T14:42:42.920Z,1.80
2018-10-05T14:45:12.169Z,2.40
2018-10-05T14:47:41.461Z,2.30
2018-10-05T14:50:10.902Z,12.67
2018-10-05T14:52:40.500Z,2.30
2018-10-05T14:55:09.602Z,2.27
2018-10-05T14:57:38.892Z,2.70
2018-10-05T15:00:08.292Z,2.07
2018-10-05T15:02:37.875Z,2.27
2018-10-05T15:05:07.304Z,1.63
2018-10-05T15:07:36.532Z,2.03
2018-10-05T15:10:05.943Z,3.33
2018-10-05T15:12:35.315Z,3.03
2018-10-05T15:15:04.676Z,2.23
2018-10-05T15:17:33.991Z,2.30
2018-10-05T15:20:03.340Z,1.80
2018-10-05T15:22:32.963Z,1.70
2018-10-05T15:25:02.323Z,1.90
2018-10-05T15:27:31.654Z,1.67
2018-10-05T15:30:00.956Z,2.10
2018-10-05T15:32:30.458Z,3.10
2018-10-05T15:34:59.742Z,2.00
2018-10-05T15:37:28.774Z,2.30
2018-10-05T15:39:57.792Z,1.97
2018-10-05T15:42:27.252Z,2.20
2018-10-05T15:44:56.472Z,4.23
2018-10-05T15:47:25.954Z,3.00
2018-10-05T15:49:55.471Z,2.57
2018-10-05T15:52:24.650Z,2.33
2018-10-05T15:54:53.748Z,3.10
2018-10-05T15:57:22.864Z,2.00
2018-10-05T15:59:52.239Z,2.27
2018-10-05T16:02:21.335Z,2.17
2018-10-05T16:04:51.026Z,2.70
2018-10-05T16:07:20.387Z,2.17
2018-10-05T16:09:49.655Z,2.30
2018-10-05T16:12:19.018Z,2.03
2018-10-05T16:14:48.183Z,2.57
2018-10-05T16:17:17.556Z,3.10
2018-10-05T16:19:46.624Z,2.83
2018-10-05T16:22:15.788Z,4.23
2018-10-05T16:24:45.637Z,2.30
2018-10-05T16:27:14.908Z,3.03
2018-10-05T16:29:44.084Z,2.63
2018-10-05T16:32:13.335Z,3.30
2018-10-05T16:34:42.614Z,3.23
2018-10-05T16:37:11.755Z,3.07
2018-10-05T16:39:40.815Z,3.30
2018-10-05T16:42:09.920Z,2.23
2018-10-05T16:44:39.017Z,2.43
2018-10-05T16:47:08.132Z,2.80
2018-10-05T16:49:37.552Z,2.13
2018-10-05T16:52:06.974Z,2.30
2018-10-05T16:54:36.388Z,2.50
2018-10-05T16:57:05.492Z,2.60
2018-10-05T16:59:34.875Z,2.30
2018-10-05T17:02:04.230Z,2.20
2018-10-05T17:04:33.334Z,2.10
2018-10-05T17:07:02.430Z,2.23
2018-10-05T17:09:31.984Z,2.20
2018-10-05T17:12:01.510Z,2.70
2018-10-05T17:14:30.894Z,2.57
2018-10-05T17:17:00.054Z,5.53
2018-10-05T17:19:29.142Z,2.50
2018-10-05T17:21:58.560Z,2.33
2018-10-05T17:24:27.981Z,4.00
2018-10-05T17:26:57.417Z,7.20
2018-10-05T17:29:26.921Z,3.73
2018-10-05T17:31:56.246Z,8.37
2018-10-05T17:34:25.519Z,3.00
2018-10-05T17:36:54.684Z,4.00
2018-10-05T17:39:23.907Z,3.50
2018-10-05T17:41:53.424Z,3.20
2018-10-05T17:44:22.910Z,5.00
2018-10-05T17:46:52.672Z,4.90
2018-10-05T17:49:22.111Z,5.40
2018-10-05T17:51:51.583Z,4.30
2018-10-05T17:54:20.934Z,5.47
2018-10-05T17:56:50.338Z,4.93
2018-10-05T17:59:19.763Z,4.43
2018-10-05T18:01:49.163Z,4.60
2018-10-05T18:04:18.452Z,4.87
2018-10-05T18:06:47.665Z,4.00
2018-10-05T18:09:16.870Z,6.30
2018-10-05T18:11:45.982Z,5.20
2018-10-05T18:14:15.098Z,13.00
2018-10-05T18:16:44.152Z,6.93
2018-10-05T18:19:13.204Z,5.93
2018-10-05T18:21:42.336Z,4.40
2018-10-05T18:24:11.483Z,5.40
2018-10-05T18:26:40.680Z,3.00
2018-10-05T18:29:10.008Z,3.50
2018-10-05T18:31:39.063Z,2.87
2018-10-05T18:34:08.359Z,3.37
2018-10-05T18:36:37.729Z,2.43
2018-10-05T18:39:09.012Z,2.73
2018-10-05T18:41:38.417Z,2.47
2018-10-05T18:44:07.630Z,27.87
2018-10-05T18:46:36.583Z,5.50
2018-10-05T18:49:05.870Z,2.90
2018-10-05T18:51:34.907Z,2.67
2018-10-05T18:54:04.280Z,2.60
2018-10-05T18:56:44.083Z,2.60
2018-10-05T18:59:13.242Z,3.10
2018-10-05T19:01:42.338Z,2.67
2018-10-05T19:04:11.611Z,2.43
2018-10-05T19:06:40.792Z,2.23
2018-10-05T19:09:10.152Z,2.43
2018-10-05T19:11:39.733Z,2.80
2018-10-05T19:14:08.798Z,2.90
2018-10-05T19:16:38.107Z,2.97
2018-10-05T19:19:07.216Z,2.53
2018-10-05T19:21:36.236Z,2.60
2018-10-05T19:24:05.332Z,3.80
2018-10-05T19:26:34.630Z,3.00
2018-10-05T19:29:03.820Z,3.03
2018-10-05T19:31:32.892Z,3.80
2018-10-05T19:34:01.931Z,3.23
2018-10-05T19:36:31.053Z,3.63
2018-10-05T19:39:00.166Z,3.30
2018-10-05T19:41:29.814Z,3.00
2018-10-05T19:43:58.867Z,3.10
2018-10-05T19:46:28.300Z,2.90
2018-10-05T19:48:57.810Z,9.27
2018-10-05T19:51:27.210Z,4.00
2018-10-05T19:53:56.332Z,4.80
2018-10-05T19:56:25.808Z,3.70
2018-10-05T19:58:55.000Z,3.70
2018-10-05T20:01:24.894Z,4.50
2018-10-05T20:03:54.254Z,3.83
2018-10-05T20:06:23.628Z,4.10
2018-10-05T20:08:52.828Z,4.40
2018-10-05T20:11:21.892Z,4.27
2018-10-05T20:13:50.940Z,4.00
2018-10-05T20:16:20.091Z,4.10
2018-10-05T20:18:49.205Z,4.53
2018-10-05T20:21:18.297Z,4.23
2018-10-05T20:23:47.420Z,4.47
2018-10-05T20:26:16.478Z,3.90
2018-10-05T20:28:45.552Z,4.40
2018-10-05T20:31:14.658Z,3.90
2018-10-05T20:33:43.707Z,3.83
2018-10-05T20:36:12.956Z,3.83
2018-10-05T20:38:42.123Z,4.20
2018-10-05T20:41:11.206Z,4.60
2018-10-05T20:43:40.365Z,4.30
2018-10-05T20:46:09.476Z,3.97
2018-10-05T20:48:38.904Z,3.67
2018-10-05T20:51:07.927Z,4.60
2018-10-05T20:53:37.664Z,4.20
2018-10-05T20:56:07.234Z,4.20
2018-10-05T20:58:36.652Z,5.07
2018-10-05T21:01:06.005Z,4.73
2018-10-05T21:03:35.311Z,4.97
2018-10-05T21:06:04.806Z,4.40
2018-10-05T21:08:33.856Z,4.97
2018-10-05T21:11:03.136Z,5.17
2018-10-05T21:13:32.165Z,4.30
2018-10-05T21:16:01.630Z,4.77
2018-10-05T21:18:30.758Z,5.13
2018-10-05T21:21:00.024Z,4.80
2018-10-05T21:23:29.472Z,4.97
2018-10-05T21:25:59.025Z,4.97
2018-10-05T21:28:28.326Z,5.00
2018-10-05T21:30:57.626Z,4.40
2018-10-05T21:33:27.004Z,4.90
2018-10-05T21:35:56.435Z,6.10
2018-10-05T21:38:26.042Z,5.87
2018-10-05T21:40:55.602Z,6.27
2018-10-05T21:43:24.959Z,6.73
2018-10-05T21:45:54.413Z,7.10
2018-10-05T21:48:23.789Z,7.17
2018-10-05T21:50:53.313Z,7.03
2018-10-05T21:53:22.613Z,6.93
2018-10-05T21:55:51.879Z,7.50
2018-10-05T21:58:21.070Z,7.60
2018-10-05T22:00:50.111Z,7.70
2018-10-05T22:03:19.175Z,7.47
2018-10-05T22:05:48.556Z,7.90
2018-10-05T22:08:17.615Z,7.73
2018-10-05T22:10:46.718Z,8.30
2018-10-05T22:13:15.793Z,7.97
2018-10-05T22:15:44.944Z,7.93
2018-10-05T22:18:14.014Z,7.83
2018-10-05T22:20:43.145Z,8.47
2018-10-05T22:23:12.640Z,8.33
2018-10-05T22:25:42.029Z,8.10
2018-10-05T22:28:11.214Z,7.97
2018-10-05T22:30:40.360Z,8.43
2018-10-05T22:33:09.463Z,9.03
2018-10-05T22:35:38.634Z,8.90
2018-10-05T22:38:08.122Z,8.73
2018-10-05T22:40:37.208Z,8.63
2018-10-05T22:43:06.305Z,8.20
2018-10-05T22:45:35.674Z,7.77
2018-10-05T22:48:04.807Z,7.43
2018-10-05T22:50:33.940Z,7.50
2018-10-05T22:53:03.166Z,7.20
2018-10-05T22:55:32.344Z,7.30
2018-10-05T22:58:01.518Z,6.90
2018-10-05T23:00:30.633Z,8.47
2018-10-05T23:02:59.864Z,6.90
2018-10-05T23:05:29.168Z,6.50
2018-10-05T23:07:58.646Z,7.57
2018-10-05T23:10:28.031Z,6.87
2018-10-05T23:12:57.434Z,7.37
2018-10-05T23:15:27.574Z,6.67
2018-10-05T23:17:56.685Z,7.53
2018-10-05T23:20:26.078Z,7.57
2018-10-05T23:22:55.475Z,7.77
2018-10-05T23:25:25.050Z,8.27
2018-10-05T23:27:54.110Z,7.90
2018-10-05T23:30:23.360Z,8.30
2018-10-05T23:32:52.898Z,8.27
2018-10-05T23:35:22.433Z,8.80
2018-10-05T23:37:51.667Z,7.90
2018-10-05T23:40:20.760Z,8.50
2018-10-05T23:42:49.914Z,8.57
2018-10-05T23:45:19.437Z,8.43
2018-10-05T23:47:48.516Z,9.03
2018-10-05T23:50:17.723Z,8.63
2018-10-05T23:52:47.990Z,8.07
2018-10-05T23:55:17.123Z,8.43
2018-10-05T23:57:46.390Z,8.27
